Time,TemperatureF,DewpointF,PressureIn,WindDirection,WindDirectionDegrees,WindSpeedMPH,WindSpeedGustMPH,Humidity,HourlyPrecipIn,Conditions,Clouds,dailyrainin,SoftwareType,DateUTC
2013-01-19 00:00:00,26.7,13.9,22.53,SSE,158,1.0,6.0,58,0.00,,,0.00,VWS V13.01,2013-01-19 05:00:00,
2013-01-19 01:00:00,26.5,14.1,22.57,SW,225,0.0,4.0,59,0.00,,,0.00,VWS V13.01,2013-01-19 06:00:00,
2013-01-19 02:00:00,27.0,15.0,26.32,WSW,248,1.0,6.0,60,0.00,,,0.00,VWS V13.01,2013-01-19 07:00:00,
2013-01-19 03:00:00,28.3,17.0,26.31,SW,225,3.0,8.0,62,0.00,,,0.00,VWS V13.01,2013-01-19 08:00:00,
2013-01-19 04:00:00,28.3,18.1,24.25,SW,225,2.0,8.0,65,0.00,,,0.00,VWS V13.01,2013-01-19 09:00:00,
2013-01-19 05:00:00,28.2,19.0,24.05,WSW,248,1.0,6.0,68,0.00,,,0.00,VWS V13.01,2013-01-19 10:00:00,
2013-01-19 06:00:00,28.8,20.6,24.05,WSW,248,2.0,8.0,71,0.00,,,0.00,VWS V13.01,2013-01-19 11:00:00,
2013-01-19 07:00:00,29.9,22.3,24.96,SW,225,3.0,11.0,73,0.00,,,0.00,VWS V13.01,2013-01-19 12:00:00,
2013-01-19 08:00:00,30.2,23.2,22.53,SW,225,3.0,11.0,75,0.00,,,0.00,VWS V13.01,2013-01-19 13:00:00,
2013-01-19 09:00:00,32.1,24.8,22.49,SW,225,4.0,12.0,74,0.00,,,0.00,VWS V13.01,2013-01-19 14:00:00,
2013-01-19 10:00:00,35.6,26.5,22.49,SW,225,7.0,19.0,69,0.00,,,0.00,VWS V13.01,2013-01-19 15:00:00,
2013-01-19 11:00:00,39.8,27.5,22.49,SW,225,8.0,20.0,61,0.00,,,0.00,VWS V13.01,2013-01-19 16:00:00,
2013-01-19 12:00:00,42.8,28.6,25.49,SW,225,9.0,23.0,57,0.00,,,0.00,VWS V13.01,2013-01-19 17:00:00,
2013-01-19 13:00:00,46.1,29.9,25.49,SW,225,8.0,16.0,53,0.00,,,0.00,VWS V13.01,2013-01-19 18:00:00,
2013-01-19 14:00:00,48.5,29.2,24.80,SW,225,9.0,27.0,47,0.00,,,0.00,VWS V13.01,2013-01-19 19:00:00,
2013-01-19 15:00:00,50.2,30.2,22.25,SW,225,7.0,20.0,46,0.00,,,0.00,VWS V13.01,2013-01-19 20:00:00,
2013-01-19 16:00:00,50.8,30.8,18.65,SW,225,5.0,14.0,46,0.00,,,0.00,VWS V13.01,2013-01-19 21:00:00,
2013-01-19 17:00:00,50.8,32.3,17.92,SW,225,4.0,10.0,49,0.00,,,0.00,VWS V13.01,2013-01-19 22:00:00,
2013-01-19 18:00:00,48.9,32.1,19.50,SSW,202,2.0,10.0,52,0.00,,,0.00,VWS V13.01,2013-01-19 23:00:00,
2013-01-19 19:00:00,47.6,31.8,19.50,SW,225,3.0,9.0,54,0.00,,,0.00,VWS V13.01,2013-01-20 00:00:00,
2013-01-19 20:00:00,46.6,32.2,21.93,WSW,248,4.0,10.0,57,0.00,,,0.00,VWS V13.01,2013-01-20 01:00:00,
2013-01-19 21:00:00,44.8,31.4,23.97,SW,225,4.0,11.0,59,0.00,,,0.00,VWS V13.01,2013-01-20 02:00:00,
2013-01-19 22:00:00,43.8,30.8,25.27,SW,225,4.0,10.0,60,0.00,,,0.00,VWS V13.01,2013-01-20 03:00:00,
2013-01-19 23:00:00,43.7,31.1,25.36,SW,225,5.0,11.0,61,0.00,,,0.00,VWS V13.01,2013-01-20 04:00:00,